Time;durP1;ratioP1;P1;durP2;ratioP2;P2;SDS_P1;SDS_P2;PMS_P1;PMS_P2;Temp;Humidity;BMP_temperature;BMP_pressure;BME280_temperature;BME280_humidity;BME280_pressure;Samples;Min_cycle;Max_cycle;Signal;HPM_P1;HPM_P2
2022/09/21 00:00:27;;;;;;;0.40;0.40;;;6.90;99.90;;;;;;5074784;28;20443;-65
2022/09/21 00:03:16;;;;;;;0.40;0.40;;;6.90;99.90;;;;;;5074394;28;20419;-66
2022/09/21 00:06:06;;;;;;;0.50;0.50;;;6.80;99.90;;;;;;5075823;28;20574;-65
2022/09/21 00:08:55;;;;;;;0.40;0.40;;;6.80;99.90;;;;;;5074339;28;20509;-65
2022/09/21 00:11:44;;;;;;;0.40;0.40;;;6.80;99.90;;;;;;5074673;28;20466;-65
2022/09/21 00:14:32;;;;;;;0.40;0.40;;;6.80;99.90;;;;;;5075047;28;20512;-65
2022/09/21 00:17:20;;;;;;;0.40;0.40;;;6.80;99.90;;;;;;5073806;28;20573;-65
2022/09/21 00:20:10;;;;;;;0.47;0.47;;;6.80;99.90;;;;;;5075164;28;20837;-65
2022/09/21 00:22:58;;;;;;;0.40;0.40;;;6.80;99.90;;;;;;5074849;28;20419;-65
2022/09/21 00:25:46;;;;;;;0.40;0.40;;;6.80;99.90;;;;;;5074853;28;20791;-66
2022/09/21 00:28:34;;;;;;;0.40;0.40;;;6.70;99.90;;;;;;5075772;28;20431;-66
2022/09/21 00:31:23;;;;;;;0.40;0.40;;;6.70;99.90;;;;;;5075281;28;20465;-65
2022/09/21 00:34:11;;;;;;;0.40;0.40;;;6.70;99.90;;;;;;5073444;28;20411;-65
2022/09/21 00:37:01;;;;;;;0.40;0.40;;;6.70;99.90;;;;;;5075304;28;20481;-64
2022/09/21 00:39:49;;;;;;;0.50;0.50;;;6.70;99.90;;;;;;5075039;28;20444;-64
2022/09/21 00:42:37;;;;;;;0.40;0.40;;;6.60;99.90;;;;;;5075095;28;20506;-66
2022/09/21 00:45:25;;;;;;;0.40;0.40;;;6.60;99.90;;;;;;5074614;28;20506;-65
2022/09/21 00:48:15;;;;;;;0.40;0.40;;;6.60;99.90;;;;;;5075197;28;20828;-63
2022/09/21 00:51:07;;;;;;;0.40;0.40;;;6.70;99.90;;;;;;5074474;28;20550;-65
2022/09/21 00:54:01;;;;;;;0.40;0.40;;;6.60;99.90;;;;;;5074189;28;20455;-65
2022/09/21 00:56:49;;;;;;;0.40;0.40;;;6.70;99.90;;;;;;5073777;28;20466;-66
2022/09/21 00:59:39;;;;;;;0.40;0.40;;;6.60;99.90;;;;;;5073006;28;20911;-66
2022/09/21 01:02:27;;;;;;;0.50;0.50;;;6.60;99.90;;;;;;5035631;28;20427;-66
2022/09/21 01:05:15;;;;;;;0.40;0.40;;;6.60;99.90;;;;;;5026243;28;20440;-68
2022/09/21 01:08:06;;;;;;;0.50;0.50;;;7.70;99.90;;;;;;5040524;28;20516;-64
2022/09/21 01:11:14;;;;;;;0.43;0.43;;;6.60;99.90;;;;;;5051311;28;20472;-64
2022/09/21 01:14:25;;;;;;;0.50;0.50;;;6.60;99.90;;;;;;5054830;28;20895;-65
2022/09/21 01:17:18;;;;;;;0.40;0.40;;;6.70;99.90;;;;;;5054524;28;20959;-64
2022/09/21 01:20:44;;;;;;;0.40;0.40;;;6.70;99.90;;;;;;5053084;28;20439;-65
2022/09/21 01:23:45;;;;;;;0.40;0.40;;;6.70;99.90;;;;;;5054409;28;20631;-65
2022/09/21 01:26:58;;;;;;;0.40;0.40;;;6.70;99.90;;;;;;5054427;28;20519;-65
2022/09/21 01:29:50;;;;;;;0.40;0.40;;;6.70;99.90;;;;;;5053017;28;20455;-65
2022/09/21 01:32:41;;;;;;;0.40;0.40;;;6.60;99.90;;;;;;5091405;28;20422;-66
2022/09/21 01:35:34;;;;;;;0.90;0.90;;;6.60;99.90;;;;;;5093724;28;20513;-65
2022/09/21 01:38:26;;;;;;;0.50;0.50;;;6.70;99.90;;;;;;5093227;28;20436;-65
2022/09/21 01:41:18;;;;;;;0.40;0.40;;;6.70;99.90;;;;;;5092610;28;20978;-66
2022/09/21 01:44:11;;;;;;;0.40;0.40;;;6.60;99.90;;;;;;5093737;28;20414;-66
2022/09/21 01:47:03;;;;;;;0.40;0.40;;;6.60;99.90;;;;;;5094541;28;20811;-65
2022/09/21 01:49:55;;;;;;;0.40;0.40;;;6.60;99.90;;;;;;5094350;28;20463;-65
2022/09/21 01:52:49;;;;;;;0.40;0.40;;;6.60;99.90;;;;;;5094753;28;20445;-66
2022/09/21 01:55:43;;;;;;;0.80;0.77;;;6.60;99.90;;;;;;5093432;28;20436;-65
2022/09/21 01:58:37;;;;;;;0.40;0.40;;;6.60;99.90;;;;;;5092902;28;20544;-65
2022/09/21 02:01:30;;;;;;;0.40;0.40;;;6.60;99.90;;;;;;5079895;28;20530;-65
2022/09/21 02:04:19;;;;;;;0.40;0.40;;;6.60;99.90;;;;;;5073620;28;20790;-66
2022/09/21 02:07:08;;;;;;;0.70;0.70;;;6.60;99.90;;;;;;5073290;28;20429;-65
2022/09/21 02:09:57;;;;;;;0.40;0.40;;;6.50;99.90;;;;;;5072747;28;22808;-65
2022/09/21 02:12:46;;;;;;;0.40;0.40;;;6.50;99.90;;;;;;5072212;28;20984;-67
2022/09/21 02:15:48;;;;;;;1.13;1.13;;;6.50;99.90;;;;;;5072988;28;20457;-66
2022/09/21 02:18:48;;;;;;;0.40;0.40;;;6.40;99.90;;;;;;5071997;28;20427;-66
2022/09/21 02:21:48;;;;;;;0.50;0.50;;;6.40;99.90;;;;;;5072299;28;20582;-66
2022/09/21 02:24:42;;;;;;;0.40;0.40;;;6.40;99.90;;;;;;5071380;28;20430;-65
2022/09/21 02:27:35;;;;;;;0.40;0.40;;;6.40;99.90;;;;;;5071684;28;21017;-65
2022/09/21 02:30:25;;;;;;;0.40;0.40;;;6.30;99.90;;;;;;5071181;28;20474;-65
2022/09/21 02:33:21;;;;;;;0.40;0.40;;;6.40;99.90;;;;;;5065803;28;21040;-65
2022/09/21 02:36:15;;;;;;;0.50;0.50;;;6.40;99.90;;;;;;5071353;28;20527;-66
2022/09/21 02:39:09;;;;;;;0.40;0.40;;;6.40;99.90;;;;;;5073083;28;20992;-65
2022/09/21 02:42:03;;;;;;;0.40;0.40;;;6.40;99.90;;;;;;5071364;28;21042;-66
2022/09/21 02:44:57;;;;;;;0.40;0.40;;;6.30;99.90;;;;;;5072756;28;20415;-65
2022/09/21 02:47:50;;;;;;;1.00;1.00;;;6.40;99.90;;;;;;5072649;28;20422;-65
2022/09/21 02:50:43;;;;;;;0.40;0.40;;;6.30;99.90;;;;;;5071685;28;20459;-66
2022/09/21 02:53:36;;;;;;;0.40;0.40;;;6.30;99.90;;;;;;5072062;28;20423;-65
2022/09/21 02:56:26;;;;;;;0.40;0.40;;;6.30;99.90;;;;;;5072959;28;20458;-66
2022/09/21 02:59:16;;;;;;;0.50;0.50;;;6.30;99.90;;;;;;5071305;28;20973;-65
2022/09/21 03:02:05;;;;;;;0.40;0.40;;;6.30;99.90;;;;;;5071153;28;20821;-65
2022/09/21 03:04:54;;;;;;;0.40;0.40;;;6.30;99.90;;;;;;5072276;28;20461;-65
2022/09/21 03:07:42;;;;;;;0.40;0.40;;;6.20;99.90;;;;;;5072313;28;20573;-65
2022/09/21 03:10:30;;;;;;;0.40;0.40;;;6.10;99.90;;;;;;5072143;28;20467;-65
2022/09/21 03:13:20;;;;;;;0.50;0.50;;;6.20;99.90;;;;;;5072601;28;20955;-65
2022/09/21 03:16:08;;;;;;;0.40;0.40;;;6.10;99.90;;;;;;5071139;28;20434;-65
2022/09/21 03:18:56;;;;;;;0.43;0.43;;;6.10;99.90;;;;;;5071600;28;20465;-65
2022/09/21 03:21:44;;;;;;;0.40;0.40;;;6.10;99.90;;;;;;5072803;28;20981;-64
2022/09/21 03:24:47;;;;;;;0.40;0.40;;;6.00;99.90;;;;;;5073215;28;20546;-65
2022/09/21 03:27:35;;;;;;;0.40;0.40;;;6.00;99.90;;;;;;5072402;28;20422;-65
2022/09/21 03:30:26;;;;;;;0.40;0.40;;;6.00;99.90;;;;;;5074434;28;20989;-66
2022/09/21 03:33:14;;;;;;;0.40;0.40;;;5.90;99.90;;;;;;5075528;28;20517;-65
2022/09/21 03:36:03;;;;;;;0.40;0.40;;;5.80;99.90;;;;;;5075301;28;20428;-65
2022/09/21 03:38:51;;;;;;;0.40;0.40;;;5.80;99.90;;;;;;5075406;28;20426;-65
2022/09/21 03:41:39;;;;;;;0.50;0.50;;;5.80;99.90;;;;;;5076725;28;20451;-66
2022/09/21 03:44:27;;;;;;;0.43;0.43;;;5.80;99.90;;;;;;5074803;28;20423;-65
2022/09/21 03:47:16;;;;;;;0.40;0.40;;;5.80;99.90;;;;;;5076050;28;20426;-65
2022/09/21 03:50:05;;;;;;;0.40;0.40;;;5.80;99.90;;;;;;5074541;28;20434;-65
2022/09/21 03:52:57;;;;;;;0.40;0.40;;;5.80;99.90;;;;;;5074797;28;20426;-66
2022/09/21 03:55:45;;;;;;;0.40;0.40;;;5.90;99.90;;;;;;5075703;28;20518;-66
2022/09/21 03:58:33;;;;;;;0.40;0.40;;;5.90;99.90;;;;;;5075536;28;20488;-65
2022/09/21 04:01:21;;;;;;;0.40;0.40;;;5.90;99.90;;;;;;5075651;28;20803;-66
2022/09/21 04:04:11;;;;;;;0.40;0.40;;;5.90;99.90;;;;;;5075206;28;20415;-66
2022/09/21 04:06:59;;;;;;;0.40;0.40;;;5.90;99.90;;;;;;5075077;28;20568;-65
2022/09/21 04:09:47;;;;;;;0.47;0.47;;;5.80;99.90;;;;;;5075017;28;20419;-66
2022/09/21 04:12:35;;;;;;;0.40;0.40;;;5.80;99.90;;;;;;5074715;28;20506;-65
2022/09/21 04:15:23;;;;;;;0.40;0.40;;;5.80;99.90;;;;;;5074848;28;20425;-64
2022/09/21 04:18:12;;;;;;;0.40;0.40;;;5.70;99.90;;;;;;5074891;28;21030;-65
2022/09/21 04:21:01;;;;;;;0.50;0.50;;;5.70;99.90;;;;;;5075394;28;20596;-65
2022/09/21 04:23:50;;;;;;;0.40;0.40;;;5.80;99.90;;;;;;5074593;28;20507;-64
2022/09/21 04:26:39;;;;;;;0.40;0.40;;;5.80;99.90;;;;;;5074752;28;20936;-65
2022/09/21 04:29:28;;;;;;;0.50;0.50;;;5.70;99.90;;;;;;5075453;28;20940;-65
2022/09/21 04:32:16;;;;;;;0.50;0.50;;;5.70;99.90;;;;;;5075271;28;20995;-65
2022/09/21 04:35:05;;;;;;;0.40;0.40;;;5.80;99.90;;;;;;5074046;28;20843;-66
2022/09/21 04:37:56;;;;;;;0.40;0.40;;;5.70;99.90;;;;;;5074229;28;20501;-65
2022/09/21 04:40:44;;;;;;;0.40;0.40;;;5.70;99.90;;;;;;5073490;28;20439;-66
2022/09/21 04:43:32;;;;;;;0.40;0.40;;;5.70;99.90;;;;;;5073901;28;20424;-66
2022/09/21 04:46:21;;;;;;;0.40;0.40;;;5.70;99.90;;;;;;5075218;28;20423;-65
2022/09/21 04:49:09;;;;;;;0.40;0.40;;;5.70;99.90;;;;;;5075512;28;20450;-64
2022/09/21 04:51:57;;;;;;;0.40;0.40;;;5.70;99.90;;;;;;5066325;28;20473;-65
2022/09/21 04:54:47;;;;;;;0.40;0.40;;;5.60;99.90;;;;;;5074356;28;21022;-65
2022/09/21 04:57:35;;;;;;;0.50;0.50;;;5.70;99.90;;;;;;5073834;28;21034;-65
2022/09/21 05:00:23;;;;;;;0.40;0.40;;;5.70;99.90;;;;;;5074688;28;20504;-65
2022/09/21 05:03:11;;;;;;;0.40;0.40;;;5.70;99.90;;;;;;5074309;28;20572;-66
2022/09/21 05:05:59;;;;;;;0.50;0.50;;;5.70;99.90;;;;;;5074388;28;20972;-66
2022/09/21 05:11:54;;;;;;;0.47;0.47;;;5.70;99.90;;;;;;5074984;28;20492;-65
2022/09/21 05:14:43;;;;;;;0.40;0.40;;;5.70;99.90;;;;;;5073631;28;20426;-66
2022/09/21 05:17:31;;;;;;;0.40;0.40;;;5.80;99.90;;;;;;5074643;28;20419;-66
2022/09/21 05:20:19;;;;;;;0.40;0.40;;;5.70;99.90;;;;;;5072735;28;20439;-66
2022/09/21 05:23:07;;;;;;;0.40;0.40;;;5.90;99.90;;;;;;5074876;28;20520;-66
2022/09/21 05:26:01;;;;;;;0.40;0.40;;;5.80;99.90;;;;;;5073358;28;20455;-65
2022/09/21 05:28:51;;;;;;;0.40;0.40;;;6.00;99.90;;;;;;5073575;28;20419;-65
2022/09/21 05:31:45;;;;;;;0.40;0.40;;;6.00;99.90;;;;;;5073014;28;20963;-66
2022/09/21 05:34:44;;;;;;;0.40;0.40;;;6.00;99.90;;;;;;5073691;28;20426;-66
2022/09/21 05:37:46;;;;;;;0.40;0.40;;;5.90;99.90;;;;;;5073888;28;20753;-66
2022/09/21 05:40:35;;;;;;;0.40;0.40;;;6.00;99.90;;;;;;5073058;28;20889;-66
2022/09/21 05:43:24;;;;;;;0.40;0.40;;;6.00;99.90;;;;;;5073673;28;20465;-65
2022/09/21 05:46:20;;;;;;;0.40;0.40;;;6.00;99.90;;;;;;5074250;28;20491;-68
2022/09/21 05:49:16;;;;;;;0.67;0.67;;;6.10;99.90;;;;;;5077973;28;20502;-65
2022/09/21 05:52:11;;;;;;;0.50;0.50;;;6.10;99.90;;;;;;5056938;28;20471;-66
2022/09/21 05:55:05;;;;;;;0.50;0.50;;;6.20;99.90;;;;;;5051479;28;20431;-66
2022/09/21 05:58:01;;;;;;;0.40;0.40;;;6.30;99.90;;;;;;5059309;28;20428;-66
2022/09/21 06:01:00;;;;;;;0.80;0.80;;;6.40;99.90;;;;;;5071871;28;20501;-66
2022/09/21 06:03:50;;;;;;;0.40;0.40;;;6.40;99.90;;;;;;5071918;28;20415;-66
2022/09/21 06:06:39;;;;;;;0.60;0.60;;;6.50;99.90;;;;;;5069966;28;21073;-66
2022/09/21 06:09:27;;;;;;;0.50;0.50;;;6.70;99.90;;;;;;5071537;28;20435;-66
2022/09/21 06:12:15;;;;;;;0.40;0.40;;;6.70;99.90;;;;;;5072453;28;20550;-68
2022/09/21 06:15:04;;;;;;;0.40;0.40;;;6.90;99.90;;;;;;5070342;28;20508;-65
2022/09/21 06:17:52;;;;;;;0.40;0.40;;;7.00;99.90;;;;;;5068910;28;20940;-65
2022/09/21 06:20:42;;;;;;;0.63;0.63;;;7.10;99.90;;;;;;5066136;28;20453;-66
2022/09/21 06:23:30;;;;;;;0.70;0.70;;;7.10;99.90;;;;;;5070931;28;20515;-66
2022/09/21 06:26:18;;;;;;;0.40;0.40;;;7.10;99.90;;;;;;5072716;28;20435;-67
2022/09/21 06:29:06;;;;;;;0.40;0.40;;;7.20;99.90;;;;;;5072436;28;20423;-66
2022/09/21 06:31:54;;;;;;;0.40;0.40;;;7.20;99.90;;;;;;5073033;28;20998;-66
2022/09/21 06:34:42;;;;;;;1.43;1.43;;;7.20;99.90;;;;;;5072287;28;20430;-66
2022/09/21 06:37:32;;;;;;;0.50;0.50;;;7.20;99.90;;;;;;5072331;28;20426;-67
2022/09/21 06:40:20;;;;;;;1.47;0.67;;;7.30;99.90;;;;;;5065620;28;20558;-66
2022/09/21 06:43:08;;;;;;;0.40;0.40;;;7.30;99.90;;;;;;5073408;28;21348;-65
2022/09/21 06:45:57;;;;;;;2.33;2.23;;;7.40;99.90;;;;;;5054402;28;20918;-67
2022/09/21 06:48:46;;;;;;;0.40;0.40;;;7.40;99.90;;;;;;5051499;28;20428;-65
2022/09/21 06:51:35;;;;;;;0.40;0.40;;;7.40;99.90;;;;;;5053431;28;20531;-65
2022/09/21 06:54:25;;;;;;;0.40;0.40;;;7.50;99.90;;;;;;5052637;28;20442;-66
2022/09/21 06:57:13;;;;;;;0.40;0.40;;;7.60;99.90;;;;;;5064332;28;20512;-66
2022/09/21 07:00:02;;;;;;;0.40;0.40;;;7.90;99.90;;;;;;5071416;28;20583;-66
2022/09/21 07:02:50;;;;;;;0.40;0.40;;;7.90;99.90;;;;;;5075076;28;20419;-65
2022/09/21 07:05:38;;;;;;;0.40;0.40;;;8.10;99.90;;;;;;5078475;28;20912;-66
2022/09/21 07:08:26;;;;;;;0.83;0.83;;;8.30;99.90;;;;;;5095559;28;20429;-65
2022/09/21 07:11:37;;;;;;;0.40;0.40;;;8.60;99.90;;;;;;5093867;28;20430;-65
2022/09/21 07:14:25;;;;;;;0.40;0.40;;;8.60;99.90;;;;;;5095224;28;20458;-66
2022/09/21 07:17:13;;;;;;;0.40;0.40;;;8.60;99.90;;;;;;5094166;28;20572;-66
2022/09/21 07:20:04;;;;;;;0.40;0.40;;;8.90;99.90;;;;;;5094783;28;20896;-66
2022/09/21 07:22:52;;;;;;;0.40;0.40;;;8.90;99.90;;;;;;5093201;28;20418;-66
2022/09/21 07:25:42;;;;;;;0.40;0.40;;;9.10;99.90;;;;;;5094576;28;20421;-66
2022/09/21 07:28:32;;;;;;;0.40;0.40;;;9.10;99.90;;;;;;5093861;28;20486;-65
2022/09/21 07:31:20;;;;;;;0.40;0.40;;;9.20;99.90;;;;;;5093498;28;20545;-65
2022/09/21 07:34:08;;;;;;;0.40;0.40;;;9.40;99.90;;;;;;5076114;28;20471;-65
2022/09/21 07:36:56;;;;;;;0.40;0.40;;;9.40;99.90;;;;;;5073106;28;20526;-66
2022/09/21 07:39:44;;;;;;;0.40;0.40;;;9.50;99.90;;;;;;5072457;28;20438;-65
2022/09/21 07:42:32;;;;;;;0.50;0.50;;;9.60;99.90;;;;;;5073614;28;20570;-64
2022/09/21 07:45:21;;;;;;;0.43;0.43;;;9.60;99.90;;;;;;5071898;28;20423;-65
2022/09/21 07:48:10;;;;;;;0.40;0.40;;;9.50;99.90;;;;;;5065166;28;20425;-65
2022/09/21 07:51:03;;;;;;;0.83;0.70;;;9.40;99.90;;;;;;5073571;28;20467;-65
2022/09/21 07:53:56;;;;;;;0.50;0.50;;;9.40;99.90;;;;;;5064723;28;20515;-65
2022/09/21 07:59:04;;;;;;;0.40;0.40;;;9.40;99.90;;;;;;5082430;28;20508;-65
2022/09/21 07:59:51;;;;;;;0.77;0.77;;;9.50;99.90;;;;;;5065205;28;20427;-67
2022/09/21 08:02:41;;;;;;;0.43;0.43;;;9.60;99.90;;;;;;5077064;28;20932;-66
2022/09/21 08:05:34;;;;;;;0.40;0.40;;;9.70;99.90;;;;;;5074384;28;20961;-65
2022/09/21 08:08:22;;;;;;;0.40;0.40;;;9.80;99.90;;;;;;5092941;28;20515;-66
2022/09/21 08:11:10;;;;;;;1.67;1.57;;;9.90;99.90;;;;;;5091466;28;20445;-65
2022/09/21 08:14:00;;;;;;;0.40;0.40;;;10.00;99.90;;;;;;5092927;28;20458;-65
2022/09/21 08:16:48;;;;;;;0.50;0.50;;;10.10;99.90;;;;;;5095310;28;20950;-65
2022/09/21 08:19:38;;;;;;;0.50;0.47;;;10.20;99.90;;;;;;5096835;28;20434;-65
2022/09/21 08:22:26;;;;;;;0.63;0.50;;;10.30;99.90;;;;;;5096102;28;20944;-66
2022/09/21 08:25:14;;;;;;;0.40;0.40;;;10.40;99.90;;;;;;5057056;28;21016;-66
2022/09/21 08:28:02;;;;;;;0.60;0.60;;;10.40;99.90;;;;;;5055296;28;20780;-65
2022/09/21 08:30:59;;;;;;;0.60;0.60;;;10.50;99.90;;;;;;5055751;28;20463;-66
2022/09/21 08:33:47;;;;;;;0.40;0.40;;;10.60;99.90;;;;;;5063687;28;20477;-64
2022/09/21 08:36:37;;;;;;;0.77;0.77;;;10.70;99.90;;;;;;5072879;28;20509;-65
2022/09/21 08:39:25;;;;;;;0.50;0.50;;;10.80;99.90;;;;;;5073713;28;20422;-65
2022/09/21 08:42:31;;;;;;;0.40;0.40;;;10.90;99.90;;;;;;5076462;28;20512;-66
2022/09/21 08:45:21;;;;;;;0.40;0.40;;;11.00;99.90;;;;;;5074863;28;21131;-66
2022/09/21 08:48:15;;;;;;;2.67;2.47;;;11.10;99.90;;;;;;5072291;28;20956;-66
2022/09/21 08:51:06;;;;;;;0.60;0.60;;;11.20;99.90;;;;;;5076361;28;20435;-65
2022/09/21 08:53:59;;;;;;;0.57;0.57;;;11.20;99.90;;;;;;5094881;28;20466;-66
2022/09/21 08:56:48;;;;;;;1.00;0.90;;;11.30;99.90;;;;;;5058512;28;21335;-66
2022/09/21 08:59:52;;;;;;;0.67;0.67;;;11.40;99.90;;;;;;5068986;28;20438;-66
2022/09/21 09:03:01;;;;;;;0.40;0.40;;;11.40;99.90;;;;;;5070091;28;20445;-65
2022/09/21 09:05:53;;;;;;;0.40;0.40;;;11.60;99.90;;;;;;5068046;28;20882;-66
2022/09/21 09:09:11;;;;;;;0.40;0.40;;;11.70;99.90;;;;;;5055242;28;20474;-66
2022/09/21 09:12:17;;;;;;;1.00;1.00;;;11.80;99.90;;;;;;5073367;28;20909;-66
2022/09/21 09:15:28;;;;;;;0.90;0.50;;;11.80;99.90;;;;;;5074651;28;20455;-65
2022/09/21 09:18:24;;;;;;;0.43;0.43;;;11.90;99.90;;;;;;5056333;28;20570;-66
2022/09/21 09:21:19;;;;;;;0.40;0.40;;;12.00;99.90;;;;;;5055055;28;21055;-65
2022/09/21 09:24:30;;;;;;;1.30;1.20;;;12.20;99.90;;;;;;5054492;28;20427;-66
2022/09/21 09:27:23;;;;;;;0.40;0.40;;;12.30;99.90;;;;;;5071101;28;20419;-66
2022/09/21 09:30:17;;;;;;;0.40;0.40;;;12.40;99.90;;;;;;5072132;28;20524;-66
2022/09/21 09:33:13;;;;;;;0.40;0.40;;;12.50;99.90;;;;;;5075329;28;20431;-66
2022/09/21 09:36:04;;;;;;;1.57;1.23;;;12.50;99.90;;;;;;5074471;28;20852;-65
2022/09/21 09:38:56;;;;;;;0.40;0.40;;;12.60;99.90;;;;;;5075036;28;20832;-65
2022/09/21 09:42:01;;;;;;;0.77;0.77;;;12.70;99.90;;;;;;5074258;28;20542;-65
2022/09/21 09:45:22;;;;;;;0.57;0.57;;;12.80;99.90;;;;;;5074968;28;20870;-65
2022/09/21 09:48:35;;;;;;;0.40;0.40;;;13.00;99.90;;;;;;5054718;28;20780;-65
2022/09/21 09:51:25;;;;;;;1.03;0.80;;;13.20;99.90;;;;;;5055347;28;20551;-65
2022/09/21 09:54:16;;;;;;;0.40;0.40;;;13.40;99.90;;;;;;5071261;28;20623;-64
2022/09/21 09:57:07;;;;;;;0.40;0.40;;;13.50;99.90;;;;;;5074169;28;20434;-66
2022/09/21 10:00:00;;;;;;;0.50;0.50;;;13.60;99.90;;;;;;5072946;28;20423;-66
2022/09/21 10:02:49;;;;;;;0.40;0.40;;;13.70;99.90;;;;;;5074054;28;20447;-66
2022/09/21 10:05:37;;;;;;;0.43;0.43;;;13.90;99.90;;;;;;5073667;28;20902;-66
2022/09/21 10:08:42;;;;;;;2.20;0.90;;;14.20;99.90;;;;;;5067775;28;20447;-66
2022/09/21 10:11:36;;;;;;;0.40;0.40;;;14.50;99.90;;;;;;5071078;28;21130;-68
2022/09/21 10:14:29;;;;;;;0.40;0.40;;;14.50;99.90;;;;;;5070442;28;20455;-67
2022/09/21 10:17:18;;;;;;;0.50;0.50;;;14.60;99.90;;;;;;5054121;28;20451;-67
2022/09/21 10:20:14;;;;;;;0.40;0.40;;;15.00;99.90;;;;;;5074210;28;20910;-66
2022/09/21 10:23:04;;;;;;;0.57;0.57;;;15.20;99.90;;;;;;5066140;28;20824;-68
2022/09/21 10:25:58;;;;;;;0.40;0.40;;;15.30;99.90;;;;;;5060935;28;20932;-66
2022/09/21 10:28:58;;;;;;;0.40;0.40;;;15.50;99.90;;;;;;5063586;28;20502;-68
2022/09/21 10:31:56;;;;;;;0.40;0.40;;;15.30;99.90;;;;;;5066738;28;20444;-67
2022/09/21 10:35:01;;;;;;;1.03;0.97;;;15.10;99.90;;;;;;5071201;28;20463;-69
2022/09/21 10:38:09;;;;;;;0.57;0.57;;;15.00;99.90;;;;;;5071665;28;20430;-69
2022/09/21 10:40:57;;;;;;;1.77;1.67;;;15.00;99.90;;;;;;5063637;28;21067;-67
2022/09/21 10:43:46;;;;;;;0.40;0.40;;;15.40;99.90;;;;;;5071020;28;20435;-67
2022/09/21 10:46:35;;;;;;;0.60;0.60;;;15.70;99.90;;;;;;5063441;28;20427;-66
2022/09/21 10:49:27;;;;;;;0.63;0.63;;;16.00;99.90;;;;;;5046320;28;20416;-67
2022/09/21 10:52:17;;;;;;;0.40;0.40;;;15.90;99.90;;;;;;5060104;28;20494;-67
2022/09/21 10:55:14;;;;;;;0.40;0.40;;;15.90;99.90;;;;;;5071737;28;20598;-67
2022/09/21 10:58:03;;;;;;;0.60;0.60;;;15.90;99.90;;;;;;5062719;28;20231;-68
2022/09/21 11:00:52;;;;;;;0.50;0.50;;;15.70;99.90;;;;;;5069783;28;20993;-66
2022/09/21 11:03:51;;;;;;;0.40;0.40;;;15.60;99.90;;;;;;5069010;28;20936;-68
2022/09/21 11:06:45;;;;;;;0.80;0.80;;;15.80;99.90;;;;;;5064035;28;20424;-68
2022/09/21 11:09:39;;;;;;;0.40;0.40;;;16.30;99.90;;;;;;5064107;28;20259;-67
2022/09/21 11:12:39;;;;;;;0.40;0.40;;;16.80;99.90;;;;;;5050956;28;20430;-68
2022/09/21 11:15:41;;;;;;;1.83;1.73;;;17.00;99.90;;;;;;5057419;28;20904;-68
2022/09/21 11:18:39;;;;;;;0.40;0.40;;;16.90;99.90;;;;;;5072153;28;20234;-66
2022/09/21 11:21:35;;;;;;;0.40;0.40;;;16.70;99.90;;;;;;5071995;28;20307;-67
2022/09/21 11:24:34;;;;;;;0.40;0.40;;;16.50;99.90;;;;;;5071299;28;20542;-67
2022/09/21 11:27:27;;;;;;;0.40;0.40;;;16.20;99.90;;;;;;5056262;28;20199;-67
2022/09/21 11:30:17;;;;;;;0.60;0.60;;;15.90;99.90;;;;;;5045450;28;20231;-70
2022/09/21 11:33:19;;;;;;;0.40;0.40;;;15.70;99.90;;;;;;5060335;28;20423;-67
2022/09/21 11:36:16;;;;;;;0.40;0.40;;;15.70;99.90;;;;;;5071301;28;20494;-67
2022/09/21 11:39:20;;;;;;;1.00;0.90;;;15.70;99.90;;;;;;5070846;28;21020;-66
2022/09/21 11:42:27;;;;;;;0.40;0.40;;;15.60;99.90;;;;;;5071618;28;20796;-66
2022/09/21 11:45:28;;;;;;;0.40;0.40;;;15.20;99.90;;;;;;5092641;22;20804;-70
2022/09/21 11:48:23;;;;;;;0.30;0.30;;;15.20;99.90;;;;;;5073253;28;20703;-71
2022/09/21 11:51:37;;;;;;;0.40;0.40;;;15.00;99.90;;;;;;5076084;28;20518;-72
2022/09/21 11:54:59;;;;;;;0.40;0.40;;;15.20;99.90;;;;;;5076107;28;20465;-70
2022/09/21 11:57:56;;;;;;;0.40;0.40;;;15.20;99.90;;;;;;5077123;28;20427;-71
2022/09/21 12:00:56;;;;;;;0.40;0.40;;;15.50;99.90;;;;;;5076133;28;20447;-69
2022/09/21 12:04:12;;;;;;;0.40;0.40;;;15.80;99.90;;;;;;5074551;28;20451;-70
2022/09/21 12:07:14;;;;;;;0.40;0.40;;;16.00;99.90;;;;;;5076185;28;20470;-71
2022/09/21 12:10:21;;;;;;;0.87;0.50;;;16.40;99.90;;;;;;5075993;28;20512;-71
2022/09/21 12:13:21;;;;;;;0.60;0.60;;;16.80;99.90;;;;;;5055998;28;20447;-71
2022/09/21 12:16:14;;;;;;;0.40;0.40;;;17.10;99.90;;;;;;5055240;28;20217;-70
2022/09/21 12:19:09;;;;;;;0.40;0.40;;;17.10;99.90;;;;;;5056461;28;20432;-71
2022/09/21 12:22:03;;;;;;;0.40;0.40;;;16.90;99.90;;;;;;5056430;28;20209;-71
2022/09/21 12:24:54;;;;;;;0.60;0.40;;;16.90;99.90;;;;;;5065074;28;20550;-69
2022/09/21 12:27:47;;;;;;;0.40;0.40;;;17.10;99.90;;;;;;5062311;28;20280;-70
2022/09/21 12:30:39;;;;;;;0.40;0.40;;;17.10;99.90;;;;;;5065630;28;20427;-71
2022/09/21 12:33:35;;;;;;;0.40;0.40;;;17.30;99.90;;;;;;5066715;28;20428;-71
2022/09/21 12:36:28;;;;;;;0.50;0.50;;;17.70;99.90;;;;;;5066777;28;20639;-71
2022/09/21 12:39:23;;;;;;;0.40;0.40;;;18.00;99.90;;;;;;5065076;28;20276;-71
2022/09/21 12:42:24;;;;;;;0.40;0.40;;;18.10;99.90;;;;;;5066653;28;20259;-68
2022/09/21 12:45:29;;;;;;;0.40;0.40;;;18.10;99.90;;;;;;5067007;28;20301;-70
2022/09/21 12:48:28;;;;;;;0.40;0.40;;;18.00;99.90;;;;;;5070378;28;20710;-70
2022/09/21 12:51:23;;;;;;;0.50;0.50;;;18.00;99.90;;;;;;5075035;28;20282;-71
2022/09/21 12:54:19;;;;;;;0.40;0.40;;;17.90;99.90;;;;;;5076595;28;20310;-70
2022/09/21 12:57:18;;;;;;;0.40;0.40;;;17.80;99.90;;;;;;5072063;28;20232;-70
2022/09/21 13:00:34;;;;;;;0.40;0.40;;;17.70;99.90;;;;;;5065054;28;20201;-70
2022/09/21 13:03:31;;;;;;;0.40;0.40;;;17.70;99.90;;;;;;5065045;28;20671;-69
2022/09/21 13:06:39;;;;;;;0.40;0.40;;;18.00;99.90;;;;;;5057366;28;20340;-73
2022/09/21 13:09:29;;;;;;;0.40;0.40;;;18.50;99.90;;;;;;5060497;28;20201;-72
2022/09/21 13:12:21;;;;;;;0.40;0.40;;;18.80;99.90;;;;;;5068815;28;20283;-72
2022/09/21 13:15:16;;;;;;;0.50;0.50;;;19.00;99.90;;;;;;5055994;28;20225;-72
2022/09/21 13:18:06;;;;;;;0.68;0.60;;;19.00;99.90;;;;;;5056840;28;20682;-72
2022/09/21 13:20:56;;;;;;;0.40;0.40;;;18.20;99.90;;;;;;5063952;28;20197;-72
2022/09/21 13:23:54;;;;;;;0.40;0.40;;;17.90;99.90;;;;;;5066503;28;20209;-72
2022/09/21 13:26:52;;;;;;;0.40;0.40;;;17.90;99.90;;;;;;5063863;28;20197;-73
2022/09/21 13:29:41;;;;;;;0.40;0.40;;;17.50;99.90;;;;;;5065042;28;20232;-71
2022/09/21 13:32:50;;;;;;;0.40;0.40;;;17.70;99.90;;;;;;5067058;28;20608;-73
2022/09/21 13:35:54;;;;;;;0.40;0.40;;;17.70;99.90;;;;;;5076238;28;20220;-71
2022/09/21 13:39:13;;;;;;;0.40;0.40;;;17.80;99.90;;;;;;5071443;28;20222;-72
2022/09/21 13:42:45;;;;;;;0.40;0.40;;;17.80;99.90;;;;;;5047271;28;20202;-70
2022/09/21 13:45:52;;;;;;;0.40;0.40;;;18.00;99.90;;;;;;5060894;28;20216;-71
2022/09/21 13:48:41;;;;;;;0.40;0.40;;;;;;;;;;5035525;28;20279;-73
2022/09/21 13:51:32;;;;;;;0.40;0.30;;;19.70;99.90;;;;;;5034987;28;20254;-71
2022/09/21 13:54:24;;;;;;;0.50;0.40;;;19.00;99.90;;;;;;5034994;28;20277;-71
2022/09/21 13:57:19;;;;;;;0.40;0.40;;;19.00;99.90;;;;;;5035953;28;20214;-74
2022/09/21 14:00:28;;;;;;;0.40;0.40;;;19.00;99.90;;;;;;5034397;28;20231;-71
2022/09/21 14:03:24;;;;;;;0.40;0.40;;;19.10;99.90;;;;;;5036589;28;20263;-71
2022/09/21 14:06:15;;;;;;;0.40;0.40;;;19.40;99.90;;;;;;5042456;28;20672;-72
2022/09/21 14:09:07;;;;;;;0.40;0.40;;;19.50;99.90;;;;;;5043999;28;20767;-74
2022/09/21 14:12:02;;;;;;;0.40;0.40;;;19.70;99.90;;;;;;5054575;28;20265;-72
2022/09/21 14:15:11;;;;;;;0.40;0.40;;;20.80;99.90;;;;;;5051465;28;20359;-71
2022/09/21 14:18:32;;;;;;;0.40;0.40;;;21.70;99.90;;;;;;5050793;28;20208;-72
2022/09/21 14:21:21;;;;;;;0.40;0.40;;;21.90;99.90;;;;;;5071815;28;20200;-71
2022/09/21 14:24:19;;;;;;;0.40;0.40;;;23.90;99.90;;;;;;5071551;28;20322;-71
2022/09/21 14:27:18;;;;;;;0.40;0.30;;;25.10;96.10;;;;;;5071151;28;20232;-71
2022/09/21 14:30:18;;;;;;;0.40;0.40;;;24.70;93.20;;;;;;5070969;28;20335;-70
2022/09/21 14:33:24;;;;;;;0.40;0.40;;;24.40;92.80;;;;;;5071148;28;20205;-73
2022/09/21 14:36:18;;;;;;;0.30;0.30;;;25.00;91.50;;;;;;5051591;28;20308;-71
2022/09/21 14:39:13;;;;;;;0.30;0.30;;;25.20;90.70;;;;;;5052958;28;20204;-73
2022/09/21 14:42:07;;;;;;;0.85;0.40;;;22.50;91.30;;;;;;5057962;28;20276;-73
2022/09/21 14:45:02;;;;;;;0.40;0.40;;;22.50;91.60;;;;;;5053717;28;20316;-70
2022/09/21 14:48:03;;;;;;;0.40;0.40;;;21.60;93.10;;;;;;5054969;28;20232;-71
2022/09/21 14:50:57;;;;;;;0.40;0.40;;;20.90;94.60;;;;;;5053251;28;20621;-71
2022/09/21 14:54:06;;;;;;;0.40;0.40;;;20.40;94.40;;;;;;5053110;28;20197;-71
2022/09/21 14:57:07;;;;;;;0.40;0.30;;;20.00;94.40;;;;;;5053900;28;20245;-72
2022/09/21 15:00:07;;;;;;;0.40;0.40;;;;;;;;;;5052627;28;20279;-70
2022/09/21 15:03:17;;;;;;;0.40;0.40;;;18.50;95.90;;;;;;5052142;28;20202;-71
2022/09/21 15:12:58;;;;;;;0.40;0.40;;;18.50;96.90;;;;;;5052912;28;20340;-73
2022/09/21 15:15:59;;;;;;;0.47;0.47;;;18.70;97.50;;;;;;5052887;28;20270;-71
2022/09/21 15:18:50;;;;;;;0.40;0.40;;;18.90;97.30;;;;;;5060264;28;20276;-70
2022/09/21 15:21:42;;;;;;;0.40;0.40;;;18.60;98.10;;;;;;5067080;28;20220;-74